createdAt,value
2019-01-10T00:01:12.679Z,5.58
2019-01-10T00:03:42.713Z,5.59
2019-01-10T00:06:12.642Z,5.58
2019-01-10T00:08:43.906Z,5.56
2019-01-10T00:11:14.876Z,5.55
2019-01-10T00:13:44.758Z,5.54
2019-01-10T00:16:15.523Z,5.54
2019-01-10T00:18:45.431Z,5.54
2019-01-10T00:21:15.437Z,5.51
2019-01-10T00:23:45.394Z,5.48
2019-01-10T00:26:15.328Z,5.47
2019-01-10T00:28:45.872Z,5.47
2019-01-10T00:31:15.898Z,5.46
2019-01-10T00:33:45.790Z,5.47
2019-01-10T00:36:16.762Z,5.46
2019-01-10T00:38:46.636Z,5.46
2019-01-10T00:41:16.590Z,5.41
2019-01-10T00:43:46.518Z,5.36
2019-01-10T00:46:16.459Z,5.30
2019-01-10T00:48:46.394Z,5.25
2019-01-10T00:51:16.361Z,5.21
2019-01-10T00:53:46.644Z,5.19
2019-01-10T00:56:16.594Z,5.19
2019-01-10T00:58:46.559Z,5.12
2019-01-10T01:01:16.524Z,5.09
2019-01-10T01:03:46.470Z,5.04
2019-01-10T01:06:16.741Z,4.97
2019-01-10T01:08:46.749Z,4.94
2019-01-10T01:11:16.676Z,4.89
2019-01-10T01:13:46.665Z,4.86
2019-01-10T01:16:16.619Z,4.83
2019-01-10T01:18:46.586Z,4.87
2019-01-10T01:21:16.500Z,4.86
2019-01-10T01:23:46.531Z,4.92
2019-01-10T01:26:16.760Z,4.92
2019-01-10T01:28:46.701Z,4.95
2019-01-10T01:31:16.550Z,4.91
2019-01-10T01:33:46.436Z,4.85
2019-01-10T01:36:16.370Z,4.78
2019-01-10T01:38:46.333Z,4.75
2019-01-10T01:41:16.296Z,4.74
2019-01-10T01:43:46.158Z,4.72
2019-01-10T01:46:16.103Z,4.71
2019-01-10T01:48:46.050Z,4.71
2019-01-10T01:51:16.216Z,4.69
2019-01-10T01:53:46.258Z,4.65
2019-01-10T01:56:16.562Z,4.66
2019-01-10T01:58:46.780Z,4.70
2019-01-10T02:01:16.694Z,4.71
2019-01-10T02:03:46.595Z,4.74
2019-01-10T02:06:16.889Z,4.76
2019-01-10T02:08:46.820Z,4.77
2019-01-10T02:11:17.093Z,4.79
2019-01-10T02:13:47.070Z,4.80
2019-01-10T02:16:17.014Z,4.79
2019-01-10T02:18:48.294Z,4.80
2019-01-10T02:21:18.571Z,4.80
2019-01-10T02:23:48.446Z,4.81
2019-01-10T02:26:18.398Z,4.81
2019-01-10T02:28:48.357Z,4.80
2019-01-10T02:31:18.294Z,4.83
2019-01-10T02:33:48.548Z,4.83
2019-01-10T02:36:18.481Z,4.89
2019-01-10T02:38:48.444Z,4.93
2019-01-10T02:41:18.366Z,4.92
2019-01-10T02:43:48.302Z,4.92
2019-01-10T02:46:18.949Z,4.93
2019-01-10T02:48:49.169Z,4.95
2019-01-10T02:51:19.403Z,4.96
2019-01-10T02:53:49.630Z,4.99
2019-01-10T02:56:19.890Z,5.00
2019-01-10T02:58:49.862Z,5.01
2019-01-10T03:01:19.829Z,4.99
2019-01-10T03:03:51.710Z,4.99
2019-01-10T03:06:22.778Z,4.99
2019-01-10T03:08:53.023Z,5.02
2019-01-10T03:11:22.958Z,5.00
2019-01-10T03:13:54.709Z,4.99
2019-01-10T03:16:24.976Z,4.97
2019-01-10T03:18:54.902Z,4.97
2019-01-10T03:21:24.856Z,4.98
2019-01-10T03:23:54.775Z,4.99
2019-01-10T03:26:24.976Z,4.99
2019-01-10T03:28:55.000Z,5.00
2019-01-10T03:31:25.393Z,5.01
2019-01-10T03:33:55.231Z,5.01
2019-01-10T03:36:25.197Z,5.01
2019-01-10T03:38:55.022Z,5.00
2019-01-10T03:41:24.957Z,5.01
2019-01-10T03:43:55.809Z,5.03
2019-01-10T03:46:25.805Z,5.02
2019-01-10T03:48:56.817Z,5.03
2019-01-10T03:51:26.724Z,5.02
2019-01-10T03:53:56.976Z,5.01
2019-01-10T03:56:27.299Z,5.00
2019-01-10T03:58:57.463Z,5.01
2019-01-10T04:01:27.431Z,5.02
2019-01-10T04:03:57.370Z,5.01
2019-01-10T04:06:27.339Z,5.00
2019-01-10T04:08:57.276Z,5.00
2019-01-10T04:11:27.214Z,4.96
2019-01-10T04:13:57.823Z,4.89
2019-01-10T04:16:28.133Z,4.83
2019-01-10T04:18:58.070Z,4.75
2019-01-10T04:21:27.958Z,4.72
2019-01-10T04:23:57.952Z,4.69
2019-01-10T04:26:27.827Z,4.67
2019-01-10T04:28:57.736Z,4.66
2019-01-10T04:31:28.025Z,4.69
2019-01-10T04:33:59.025Z,4.70
2019-01-10T04:36:30.300Z,4.70
2019-01-10T04:39:00.334Z,4.67
2019-01-10T04:44:06.929Z,4.58
2019-01-10T04:46:30.454Z,4.55
2019-01-10T04:49:00.344Z,4.50
2019-01-10T04:51:30.340Z,4.49
2019-01-10T04:54:00.598Z,4.45
2019-01-10T04:56:30.871Z,4.40
2019-01-10T04:59:00.782Z,4.40
2019-01-10T05:01:30.809Z,4.36
2019-01-10T05:04:01.041Z,4.36
2019-01-10T05:06:31.643Z,4.37
2019-01-10T05:09:01.545Z,4.37
2019-01-10T05:11:51.945Z,4.34
2019-01-10T05:14:21.896Z,4.35
2019-01-10T05:16:52.098Z,4.38
2019-01-10T05:19:22.211Z,4.38
2019-01-10T05:21:52.083Z,4.34
2019-01-10T05:24:22.554Z,4.35
2019-01-10T05:26:52.988Z,4.33
2019-01-10T05:29:23.013Z,4.32
2019-01-10T05:31:52.931Z,4.33
2019-01-10T05:34:22.939Z,4.35
2019-01-10T05:36:53.281Z,4.35
2019-01-10T05:39:23.325Z,4.35
2019-01-10T05:41:53.591Z,4.35
2019-01-10T05:44:26.746Z,4.35
2019-01-10T05:46:55.596Z,4.34
2019-01-10T05:49:25.563Z,4.36
2019-01-10T05:51:55.577Z,4.34
2019-01-10T05:54:25.835Z,4.35
2019-01-10T05:56:56.144Z,4.33
2019-01-10T05:59:26.170Z,4.34
2019-01-10T06:01:56.499Z,4.35
2019-01-10T06:04:26.795Z,4.33
2019-01-10T06:06:56.761Z,4.31
2019-01-10T06:09:27.046Z,4.30
2019-01-10T06:11:57.354Z,4.29
2019-01-10T06:14:35.400Z,4.29
2019-01-10T06:16:59.571Z,4.31
2019-01-10T06:19:29.902Z,4.27
2019-01-10T06:21:59.873Z,4.27
2019-01-10T06:24:29.876Z,4.23
2019-01-10T06:26:59.863Z,4.24
2019-01-10T06:29:30.193Z,4.27
2019-01-10T06:32:00.178Z,4.25
2019-01-10T06:34:30.173Z,4.24
2019-01-10T06:37:00.165Z,4.24
2019-01-10T06:39:30.404Z,4.23
2019-01-10T06:42:00.686Z,4.22
2019-01-10T06:44:30.633Z,4.21
2019-01-10T06:47:00.667Z,4.21
2019-01-10T06:49:30.586Z,4.19
2019-01-10T06:52:00.815Z,4.18
2019-01-10T06:54:30.790Z,4.17
2019-01-10T06:57:00.773Z,4.17
2019-01-10T06:59:30.768Z,4.16
2019-01-10T07:02:01.107Z,4.21
2019-01-10T07:04:31.298Z,4.24
2019-01-10T07:07:01.264Z,4.27
2019-01-10T07:09:31.212Z,4.29
2019-01-10T07:12:01.181Z,4.30
2019-01-10T07:14:32.609Z,4.29
2019-01-10T07:17:02.474Z,4.29
2019-01-10T07:19:45.028Z,4.29
2019-01-10T07:22:16.398Z,4.30
2019-01-10T07:24:52.059Z,4.32
2019-01-10T07:27:21.942Z,4.31
2019-01-10T07:29:56.293Z,4.32
2019-01-10T07:32:26.369Z,4.30
2019-01-10T07:35:00.635Z,4.29
2019-01-10T07:37:30.625Z,4.30
2019-01-10T07:40:01.617Z,4.29
2019-01-10T07:42:35.207Z,4.27
2019-01-10T07:45:17.899Z,4.26
2019-01-10T07:47:48.692Z,4.28
2019-01-10T07:50:22.312Z,4.30
2019-01-10T07:52:52.251Z,4.31
2019-01-10T07:55:22.415Z,4.31
2019-01-10T07:57:52.337Z,4.32
2019-01-10T08:00:22.311Z,4.32
2019-01-10T08:02:52.591Z,4.31
2019-01-10T08:05:22.537Z,4.30
2019-01-10T08:07:52.588Z,4.30
2019-01-10T08:10:23.627Z,4.32
2019-01-10T08:12:53.552Z,4.35
2019-01-10T08:15:23.795Z,4.36
2019-01-10T08:17:54.018Z,4.37
2019-01-10T08:20:23.978Z,4.38
2019-01-10T08:22:54.203Z,4.39
2019-01-10T08:25:24.146Z,4.39
2019-01-10T08:27:54.468Z,4.38
2019-01-10T08:30:25.711Z,4.37
2019-01-10T08:32:55.666Z,4.38
2019-01-10T08:35:30.136Z,4.38
2019-01-10T08:38:00.124Z,4.38
2019-01-10T08:40:30.315Z,4.40
2019-01-10T08:43:00.272Z,4.40
2019-01-10T08:45:30.264Z,4.40
2019-01-10T08:48:00.522Z,4.42
2019-01-10T08:50:30.496Z,4.43
2019-01-10T08:53:00.444Z,4.45
2019-01-10T08:55:30.392Z,4.49
2019-01-10T08:58:00.270Z,4.49
2019-01-10T09:00:30.250Z,4.50
2019-01-10T09:03:00.199Z,4.50
2019-01-10T09:05:30.172Z,4.49
2019-01-10T09:08:00.188Z,4.51
2019-01-10T09:10:32.272Z,4.54
2019-01-10T09:13:02.519Z,4.52
2019-01-10T09:15:34.672Z,4.47
2019-01-10T09:18:04.730Z,4.48
2019-01-10T09:20:34.593Z,4.51
2019-01-10T09:23:04.616Z,4.57
2019-01-10T09:25:34.636Z,4.60
2019-01-10T09:28:04.650Z,4.65
2019-01-10T09:30:34.590Z,4.68
2019-01-10T09:33:04.654Z,4.70
2019-01-10T09:35:34.583Z,4.76
2019-01-10T09:38:04.748Z,4.80
2019-01-10T09:40:34.694Z,4.83
2019-01-10T09:43:04.808Z,4.83
2019-01-10T09:45:42.786Z,4.85
2019-01-10T09:48:06.403Z,4.88
2019-01-10T09:50:36.387Z,4.90
2019-01-10T09:53:06.595Z,4.94
2019-01-10T09:55:36.860Z,4.97
2019-01-10T09:58:06.821Z,4.99
2019-01-10T10:00:36.812Z,5.03
2019-01-10T10:03:06.813Z,5.04
2019-01-10T10:05:36.746Z,5.05
2019-01-10T10:08:06.991Z,5.08
2019-01-10T10:10:36.953Z,5.11
2019-01-10T10:13:06.960Z,5.12
2019-01-10T10:18:06.433Z,5.13
2019-01-10T10:20:36.438Z,5.17
2019-01-10T10:23:06.385Z,5.19
2019-01-10T10:25:36.330Z,5.23
2019-01-10T10:28:06.568Z,5.27
2019-01-10T10:30:36.783Z,5.30
2019-01-10T10:33:07.018Z,5.34
2019-01-10T10:35:36.965Z,5.41
2019-01-10T10:38:07.231Z,5.46
2019-01-10T10:40:37.192Z,5.53
2019-01-10T10:43:07.188Z,5.56
2019-01-10T10:45:37.047Z,5.59
2019-01-10T10:48:07.020Z,5.60
2019-01-10T10:50:37.099Z,5.62
2019-01-10T10:53:07.116Z,5.65
2019-01-10T10:55:38.280Z,5.70
2019-01-10T10:58:08.644Z,5.76
2019-01-10T11:00:38.642Z,5.84
2019-01-10T11:03:08.651Z,5.88
2019-01-10T11:05:38.826Z,5.93
2019-01-10T11:08:08.775Z,5.97
2019-01-10T11:10:38.729Z,5.99
2019-01-10T11:13:08.669Z,5.99
2019-01-10T11:15:38.743Z,5.98
2019-01-10T11:18:08.704Z,5.95
2019-01-10T11:20:38.652Z,5.95
2019-01-10T11:23:10.880Z,5.98
2019-01-10T11:25:40.236Z,6.00
2019-01-10T11:28:10.088Z,6.00
2019-01-10T11:30:40.171Z,5.99
2019-01-10T11:33:10.123Z,5.94
2019-01-10T11:35:40.078Z,5.89
2019-01-10T11:38:11.257Z,5.84
2019-01-10T11:40:41.237Z,5.85
2019-01-10T11:43:11.535Z,5.88
2019-01-10T11:45:41.498Z,5.92
2019-01-10T11:48:11.412Z,5.93
2019-01-10T11:50:41.645Z,5.92
2019-01-10T11:53:11.593Z,5.92
2019-01-10T11:55:42.653Z,5.93
2019-01-10T11:58:12.599Z,5.96
2019-01-10T12:00:42.596Z,5.97
2019-01-10T12:03:12.544Z,5.96
2019-01-10T12:05:47.842Z,6.02
2019-01-10T12:08:16.780Z,6.06
2019-01-10T12:10:46.743Z,6.09
2019-01-10T12:13:16.714Z,6.10
2019-01-10T12:15:46.756Z,6.13
2019-01-10T12:18:16.713Z,6.15
2019-01-10T12:20:46.650Z,6.15
2019-01-10T12:23:16.921Z,6.12
2019-01-10T12:25:46.966Z,6.10
2019-01-10T12:28:16.900Z,6.08
2019-01-10T12:30:46.832Z,6.04
2019-01-10T12:33:16.751Z,6.03
2019-01-10T12:35:46.693Z,6.00
2019-01-10T12:38:16.646Z,6.00
2019-01-10T12:40:46.622Z,6.00
2019-01-10T12:43:16.643Z,5.97
2019-01-10T12:45:46.517Z,5.95
2019-01-10T12:48:16.510Z,5.97
2019-01-10T12:50:46.472Z,5.94
2019-01-10T12:53:17.526Z,5.91
2019-01-10T12:55:47.796Z,5.90
2019-01-10T12:58:19.148Z,5.91
2019-01-10T13:00:49.079Z,5.88
2019-01-10T13:03:18.952Z,5.78
2019-01-10T13:05:49.323Z,5.73
2019-01-10T13:08:19.613Z,5.72
2019-01-10T13:10:49.559Z,5.72
2019-01-10T13:13:19.477Z,5.66
2019-01-10T13:15:49.451Z,5.63
2019-01-10T13:18:19.316Z,5.63
2019-01-10T13:20:49.304Z,5.60
2019-01-10T13:23:19.361Z,5.62
2019-01-10T13:25:49.633Z,5.63
2019-01-10T13:28:19.588Z,5.62
2019-01-10T13:30:50.183Z,5.60
2019-01-10T13:33:20.171Z,5.63
2019-01-10T13:35:50.152Z,5.72
2019-01-10T13:38:20.123Z,5.83
2019-01-10T13:40:50.109Z,5.88
2019-01-10T13:43:20.330Z,5.85
2019-01-10T13:45:50.278Z,5.81
2019-01-10T13:48:20.250Z,5.79
2019-01-10T13:50:50.244Z,5.83
2019-01-10T13:53:20.070Z,5.87
2019-01-10T13:55:50.015Z,5.86
2019-01-10T13:58:20.056Z,5.84
2019-01-10T14:00:50.102Z,5.83
2019-01-10T14:03:20.035Z,5.84
2019-01-10T14:05:50.003Z,5.84
2019-01-10T14:08:19.955Z,5.80
2019-01-10T14:10:49.935Z,5.77
2019-01-10T14:13:19.887Z,5.71
2019-01-10T14:15:49.918Z,5.71
2019-01-10T14:18:20.112Z,5.73
2019-01-10T14:20:50.101Z,5.78
2019-01-10T14:23:20.014Z,5.76
2019-01-10T14:25:50.339Z,5.74
2019-01-10T14:28:20.272Z,5.70
2019-01-10T14:30:50.187Z,5.71
2019-01-10T14:33:20.047Z,5.71
2019-01-10T14:35:49.894Z,5.72
2019-01-10T14:38:20.606Z,5.73
2019-01-10T14:40:50.943Z,5.69
2019-01-10T14:43:21.091Z,5.64
2019-01-10T14:45:51.015Z,5.61
2019-01-10T14:48:20.948Z,5.59
2019-01-10T14:50:50.890Z,5.56
2019-01-10T14:53:20.842Z,5.58
2019-01-10T14:55:50.792Z,5.62
2019-01-10T14:58:21.020Z,5.66
2019-01-10T15:00:50.944Z,5.70
2019-01-10T15:03:20.863Z,5.70
2019-01-10T15:05:51.109Z,5.70
2019-01-10T15:08:21.344Z,5.68
2019-01-10T15:10:51.267Z,5.63
2019-01-10T15:13:21.200Z,5.58
2019-01-10T15:15:50.999Z,5.52
2019-01-10T15:18:20.856Z,5.50
2019-01-10T15:20:50.712Z,5.48
2019-01-10T15:23:20.643Z,5.47
2019-01-10T15:25:50.849Z,5.46
2019-01-10T15:28:20.782Z,5.45
2019-01-10T15:30:50.708Z,5.46
2019-01-10T15:33:20.638Z,5.48
2019-01-10T15:35:50.717Z,5.51
2019-01-10T15:38:20.778Z,5.51
2019-01-10T15:40:50.719Z,5.48
2019-01-10T15:43:20.667Z,5.48
2019-01-10T15:45:50.580Z,5.50
2019-01-10T15:48:20.800Z,5.51
2019-01-10T15:50:50.783Z,5.49
2019-01-10T15:53:20.753Z,5.46
2019-01-10T15:55:50.687Z,5.43
2019-01-10T15:58:20.538Z,5.40
2019-01-10T16:00:50.503Z,5.37
2019-01-10T16:03:20.504Z,5.33
2019-01-10T16:05:50.363Z,5.29
2019-01-10T16:08:20.232Z,5.27
2019-01-10T16:10:50.179Z,5.25
2019-01-10T16:13:20.097Z,5.23
2019-01-10T16:15:49.942Z,5.22
2019-01-10T16:18:19.803Z,5.23
2019-01-10T16:20:49.749Z,5.25
2019-01-10T16:23:20.001Z,5.26
2019-01-10T16:25:49.948Z,5.25
2019-01-10T16:28:19.878Z,5.24
2019-01-10T16:30:49.893Z,5.25
2019-01-10T16:33:20.152Z,5.24
2019-01-10T16:35:49.960Z,5.22
2019-01-10T16:38:19.908Z,5.19
2019-01-10T16:40:49.843Z,5.20
2019-01-10T16:43:20.038Z,5.18
2019-01-10T16:45:49.981Z,5.17
2019-01-10T16:48:20.167Z,5.18
2019-01-10T16:50:50.169Z,5.18
2019-01-10T16:53:20.094Z,5.20
2019-01-10T16:55:50.022Z,5.20
2019-01-10T16:58:20.197Z,5.21
2019-01-10T17:00:50.118Z,5.20
2019-01-10T17:03:20.351Z,5.24
2019-01-10T17:05:50.284Z,5.23
2019-01-10T17:08:20.220Z,5.23
2019-01-10T17:10:50.138Z,5.22
2019-01-10T17:13:20.081Z,5.21
2019-01-10T17:15:51.072Z,5.21
2019-01-10T17:18:20.940Z,5.22
2019-01-10T17:20:51.196Z,5.22
2019-01-10T17:23:21.251Z,5.22
2019-01-10T17:25:51.466Z,5.22
2019-01-10T17:28:21.431Z,5.22
2019-01-10T17:30:51.357Z,5.22
2019-01-10T17:33:21.300Z,5.21
2019-01-10T17:35:51.310Z,5.23
2019-01-10T17:38:21.550Z,5.21
2019-01-10T17:40:51.566Z,5.19
2019-01-10T17:43:21.556Z,5.20
2019-01-10T17:45:52.379Z,5.18
2019-01-10T17:48:22.487Z,5.14
2019-01-10T17:50:52.536Z,5.11
2019-01-10T17:53:22.468Z,5.09
2019-01-10T17:55:52.488Z,5.08
2019-01-10T17:58:22.734Z,5.08
2019-01-10T18:00:52.809Z,5.04
2019-01-10T18:03:22.774Z,5.05
2019-01-10T18:05:52.728Z,5.05
2019-01-10T18:08:22.821Z,5.04
2019-01-10T18:10:52.754Z,5.03
2019-01-10T18:13:22.962Z,5.03
2019-01-10T18:15:53.010Z,5.02
2019-01-10T18:18:22.860Z,5.04
2019-01-10T18:20:53.309Z,5.05
2019-01-10T18:23:23.226Z,5.09
2019-01-10T18:25:53.174Z,5.10
2019-01-10T18:28:23.033Z,5.09
2019-01-10T18:30:52.963Z,5.07
2019-01-10T18:33:22.966Z,5.05
2019-01-10T18:35:53.213Z,5.04
2019-01-10T18:38:23.066Z,5.03
2019-01-10T18:40:53.281Z,5.05
2019-01-10T18:43:23.215Z,5.03
2019-01-10T18:45:53.376Z,5.02
2019-01-10T18:48:23.296Z,5.01
2019-01-10T18:50:53.223Z,5.01
2019-01-10T18:53:23.081Z,5.00
2019-01-10T18:55:53.007Z,5.00
2019-01-10T18:58:23.113Z,5.00
2019-01-10T19:00:53.033Z,5.01
2019-01-10T19:03:23.070Z,5.02
2019-01-10T19:05:53.260Z,5.01
2019-01-10T19:08:23.446Z,5.02
2019-01-10T19:10:53.444Z,5.02
2019-01-10T19:13:23.370Z,5.04
2019-01-10T19:15:53.380Z,5.05
2019-01-10T19:18:23.477Z,5.07
2019-01-10T19:20:53.333Z,5.08
2019-01-10T19:23:23.366Z,5.08
2019-01-10T19:25:53.283Z,5.06
2019-01-10T19:28:23.217Z,5.05
2019-01-10T19:30:53.419Z,5.03
2019-01-10T19:33:23.355Z,5.03
2019-01-10T19:35:53.304Z,5.04
2019-01-10T19:38:23.246Z,5.06
2019-01-10T19:40:53.163Z,5.07
2019-01-10T19:43:23.014Z,5.10
2019-01-10T19:45:53.203Z,5.13
2019-01-10T19:48:23.158Z,5.15
2019-01-10T19:50:53.240Z,5.15
2019-01-10T19:53:23.258Z,5.13
2019-01-10T19:55:53.246Z,5.11
2019-01-10T19:58:23.089Z,5.11
2019-01-10T20:00:55.576Z,5.10
2019-01-10T20:03:25.614Z,5.09
2019-01-10T20:05:55.592Z,5.08
2019-01-10T20:08:25.558Z,5.07
2019-01-10T20:10:55.555Z,5.09
2019-01-10T20:13:25.515Z,5.11
2019-01-10T20:15:55.435Z,5.11
2019-01-10T20:18:25.363Z,5.14
2019-01-10T20:20:56.299Z,5.16
2019-01-10T20:23:29.236Z,5.19
2019-01-10T20:25:59.447Z,5.20
2019-01-10T20:28:29.631Z,5.22
2019-01-10T20:30:59.569Z,5.24
2019-01-10T20:33:29.421Z,5.25
2019-01-10T20:35:59.623Z,5.25
2019-01-10T20:38:30.610Z,5.25
2019-01-10T20:41:00.630Z,5.25
2019-01-10T20:43:30.642Z,5.26
2019-01-10T20:46:01.033Z,5.23
2019-01-10T20:48:30.980Z,5.23
2019-01-10T20:51:01.222Z,5.22
2019-01-10T20:53:31.749Z,5.21
2019-01-10T20:56:01.716Z,5.19
2019-01-10T20:58:32.493Z,5.17
2019-01-10T21:01:02.596Z,5.15
2019-01-10T21:03:32.797Z,5.17
2019-01-10T21:06:03.182Z,5.15
2019-01-10T21:08:33.298Z,5.12
2019-01-10T21:11:03.972Z,5.14
2019-01-10T21:13:33.891Z,5.12
2019-01-10T21:16:04.900Z,5.13
2019-01-10T21:18:36.421Z,5.17
2019-01-10T21:21:06.347Z,5.18
2019-01-10T21:23:37.837Z,5.17
2019-01-10T21:26:07.870Z,5.14
2019-01-10T21:28:37.805Z,5.14
2019-01-10T21:31:08.467Z,5.12
2019-01-10T21:33:38.360Z,5.12
2019-01-10T21:36:08.283Z,5.11
2019-01-10T21:38:38.189Z,5.11
2019-01-10T21:41:08.124Z,5.10
2019-01-10T21:43:38.040Z,5.11
2019-01-10T21:46:08.246Z,5.11
2019-01-10T21:48:38.275Z,5.11
2019-01-10T21:51:08.582Z,5.12
2019-01-10T21:53:38.508Z,5.12
2019-01-10T21:56:10.213Z,5.09
2019-01-10T21:58:41.704Z,5.03
2019-01-10T22:01:11.621Z,5.01
2019-01-10T22:03:41.490Z,4.94
2019-01-10T22:06:11.412Z,4.93
2019-01-10T22:08:41.344Z,4.93
2019-01-10T22:11:11.261Z,4.95
2019-01-10T22:13:41.121Z,4.97
2019-01-10T22:16:11.303Z,4.96
2019-01-10T22:18:41.675Z,4.97
2019-01-10T22:21:11.981Z,4.97
2019-01-10T22:23:41.756Z,4.96
2019-01-10T22:26:11.608Z,4.97
2019-01-10T22:28:41.479Z,4.97
2019-01-10T22:31:11.324Z,4.98
2019-01-10T22:33:41.188Z,4.98
2019-01-10T22:36:11.108Z,5.00
2019-01-10T22:38:41.234Z,5.01
2019-01-10T22:41:12.348Z,5.00
2019-01-10T22:43:42.293Z,5.00
2019-01-10T22:46:12.216Z,5.00
2019-01-10T22:48:47.703Z,5.02
2019-01-10T22:51:13.639Z,5.00
2019-01-10T22:53:43.496Z,4.94
2019-01-10T22:56:13.419Z,4.94
2019-01-10T22:58:43.197Z,4.92
2019-01-10T23:01:49.752Z,4.87
2019-01-10T23:04:30.286Z,4.85
2019-01-10T23:07:00.129Z,4.79
2019-01-10T23:09:30.433Z,4.77
2019-01-10T23:12:00.278Z,4.75
2019-01-10T23:14:30.207Z,4.74
2019-01-10T23:17:00.126Z,4.73
2019-01-10T23:19:30.049Z,4.71
2019-01-10T23:22:10.226Z,4.70
2019-01-10T23:24:40.144Z,4.66
2019-01-10T23:27:10.071Z,4.65
2019-01-10T23:29:40.248Z,4.69
2019-01-10T23:32:12.643Z,4.69
2019-01-10T23:34:48.374Z,4.68
2019-01-10T23:37:22.698Z,4.70
2019-01-10T23:39:53.542Z,4.71
2019-01-10T23:42:23.458Z,4.71
2019-01-10T23:44:53.681Z,4.72
2019-01-10T23:47:23.892Z,4.72
2019-01-10T23:49:53.822Z,4.74
2019-01-10T23:52:23.735Z,4.73
2019-01-10T23:54:53.584Z,4.74
2019-01-10T23:57:23.503Z,4.74
2019-01-10T23:59:53.425Z,4.74
